Terminal Aerodrome Forecast
Issued by NWS Jackson, KY

Home | Current Version | Previous Version | Text Only | Print | Product List | Glossary On
Versions: 1 2 3 4 5 6 7 8 9 10 11 12 13 14
000
FTUS43 KJKL 240500
TAFLOZ
TAF
KLOZ 240528Z 2406/2506 20012G20KT P6SM OVC028
     FM241400 20016G29KT P6SM OVC035
     FM241600 22022G36KT P6SM BKN040
     FM242200 25015G24KT P6SM SCT040
     FM250000 26012G18KT P6SM SCT035=

USA.gov is the U.S. government's official web portal to all federal, state and local government web resources and services.